Skip Navigation Links weather.gov 
NOAA logo-Select to go to the NOAA homepage NDBC Title GraphicClick to go to NDBC home page   Select to go to the NWS homepage
Home About Us Contact Us
 
 
    
    Station List

 Data Access
    Mobile Access
    Classic Maps
         Recent
         DART®
    Obs Search
    Ship Obs Report
    BuoyCAMs
    TAO
    DODS
    OceanSITES
    HF Radar
    OSMC
    Dial-A-Buoy
    RSS Feeds Image indicating link to RSS feed access page
    Web Widget
    Web Data Guide
    Maintenance Schedule
    Station Status Report

 Program Info
    TAO
    DART®
    IOOS®

 Publications
    NDBC PEA
    NDBC FONSI
    NDBC DQC Handbook

 Visitor Information
 
USA.gov is the U.S. government's official web portal to all federal, state and local government web resources and services.

Station PPTM2 - 8578240 - Piney Point, MD Image indicating link to RSS feed of recent meteorological observations for station PPTM2

Owned and maintained by NOAA's National Ocean Service
C-MAN Station
38.134 N 76.533 W (38°8'2" N 76°31'59" W)

For area forecasts and warnings, select: Wakefield WFO

Search And Rescue (SAR) Data

Meteorological Observations from Nearby Stations and Ships Image indicating link to RSS feed of recent meteorological observations near station PPTM2

Large icon indicates selected station.
yellow diamond Stations with recent data
red diamond Stations with no data in last 8 hours
     (24 hours for tsunami stations)


Conditions at PPTM2 as of
(6:00 pm EDT)
2200 GMT on 03/23/2019:
     

Click on the graph icon in the table below to see a time series plot of the last five days of that observation.

5-day plot - Wind Direction Wind Direction (WDIR): NNW ( 330 deg true )
5-day plot - Wind Speed Wind Speed (WSPD): 16 kts
5-day plot - Wind Gust Wind Gust (GST): 17 kts
5-day plot - Wind Speed at 10 Meters Wind Speed at 10 meters (WSPD10M): 17 kts
5-day plot - Wind Speed at 10 Meters Wind Speed at 20 meters (WSPD20M): 17 kts
5-day plot - Wind Speed, Wind Gust and Atmospheric Pressure Combined plot of Wind Speed, Gust, and Air Pressure
NOS Water Level Observation Network Water Level
Previous observations
5-day plot - Wind Direction 5-day plot - Wind Speed 5-day plot - Wind Gust 5-day plot - Wave Height 5-day plot - Dominant Wave Period 5-day plot - Average Period 5-day plot - Mean Wave Direction 5-day plot - Atmospheric Pressure 5-day plot - Pressure Tendency 5-day plot - Air Temperature 5-day plot - Water Temperature 5-day plot - Dew Point 5-day plot - Salinity 5-day plot - Visibility 5-day plot - Tide (above MLLW)
MM DD TIME
(EDT)
WDIR WSPD
kts
GST
kts
WVHT
ft
DPD
sec
APD
sec
MWD PRES
in
PTDY
in
ATMP
°F
WTMP
°F
DEWP
°F
SAL
psu
VIS
nmi
TIDE
ft
0323 5:54 pmNNW 16 17------------
0323 5:48 pmNNW 17 18------------
0323 5:42 pmNNW 18 20------------
0323 5:30 pmNNW 19 21------------
0323 5:24 pmNNW 18 20------------
0323 5:18 pmNNW 19 20------------
0323 4:54 pmNNW 17 19------------
0323 4:48 pmNNW 19 21------------
0323 4:42 pmNNW 20 22------------
0323 4:36 pmNNW 20 21------------
0323 4:30 pmNNW 20 21------------
0323 4:24 pmNNW 21 23------------
0323 4:18 pmNNW 20 22------------
0323 4:12 pmNNW 19 21------------
0323 4:06 pmNNW 21 23------------
0323 3:54 pmNNW 21 23------------
0323 3:48 pmNNW 21 22------------
0323 3:42 pmNNW 20 24------------
0323 3:36 pmNNW 18 19------------
0323 3:30 pmNNW 18 20------------
0323 3:24 pmNNW 20 21------------
0323 3:18 pmNNW 19 21------------
0323 3:12 pmNNW 19 20------------
0323 3:06 pmNNW 21 23------------
0323 3:00 pmNNW 21 25------------
0323 2:54 pmNNW 22 24------------
0323 2:48 pmNNW 21 26------------
0323 2:42 pmNNW 22 24------------
0323 2:36 pmNNW 23 25------------
0323 2:30 pmNNW 20 22------------
0323 2:24 pmNNW 19 22------------
0323 2:18 pmNNW 16 19------------
0323 2:12 pmNNW 21 23------------
0323 2:06 pmNNW 21 24------------
0323 2:00 pmNNW 21 23------------
0323 1:54 pmNNW 19 21------------
0323 1:48 pmNNW 21 23------------
0323 1:42 pmNNW 22 23------------
0323 1:36 pmNNW 21 23------------
0323 1:30 pmNNW 23 25------------
0323 1:24 pmNNW 23 25------------
0323 1:18 pmNNW 20 22------------
0323 1:12 pmNNW 22 24------------
0323 1:06 pmNNW 21 24------------
0323 1:00 pmNNW 23 25------------
032312:54 pmNNW 22 24------------
032312:48 pmNNW 21 24------------
032312:42 pmNNW 21 24------------
032312:36 pmNNW 22 24------------
032312:30 pmNNW 22 24------------
032312:24 pm NW 21 24------------
032312:18 pm NW 20 21------------
032312:12 pmNNW 19 21------------
032312:06 pm NW 20 22------------
032312:00 pm NW 19 21------------
032311:54 amNNW 22 24------------
032311:48 amNNW 23 25------------
032311:42 amNNW 22 23------------
032311:36 am NW 20 23------------
032311:30 amNNW 21 24------------
032311:24 am NW 22 24------------
032311:18 am NW 24 26------------
032311:12 am NW 22 25------------
032311:06 am NW 21 25------------
032311:00 am NW 22 25------------
032310:54 amNNW 23 25------------
032310:48 amNNW 22 25------------
032310:42 am NW 22 25------------
032310:36 am NW 22 25------------
032310:30 am NW 22 23------------
032310:24 am NW 22 25------------
032310:18 amNNW 24 27------------
032310:12 am NW 25 27------------
032310:06 am NW 24 27------------
032310:00 am NW 27 31------------
0323 9:48 am NW 23 27------------
0323 9:42 am NW 25 27------------
0323 9:36 amNNW 25 27------------
0323 9:30 amNNW 25 28------------
0323 9:24 amNNW 26 29------------
0323 9:18 amNNW 25 28------------
0323 9:12 am NW 24 26------------
0323 9:06 amNNW 26 30------------
0323 9:00 amNNW 28 31------------
0323 8:54 amNNW 27 28------------
0323 8:48 amNNW 27 31------------
0323 8:30 amNNW 25 27------------
0323 8:24 amNNW 26 31------------
0323 8:18 amNNW 25 27------------
0323 8:12 amNNW 26 30------------
0323 8:06 amNNW 24 27------------
0323 8:00 amNNW 25 27------------
0323 7:54 amNNW 27 30------------
0323 7:48 amNNW 25 27------------
0323 7:42 amNNW 25 28------------
0323 7:36 amNNW 27 30------------
0323 7:30 amNNW 26 29------------
0323 7:24 amNNW 26 29------------
0323 7:18 amNNW 26 31------------
0323 7:12 amNNW 23 26------------
0323 7:06 amNNW 28 30------------
0323 7:00 amNNW 27 29------------
0323 6:54 amNNW 27 29------------
0323 6:48 amNNW 25 30------------
0323 6:42 amNNW 26 31------------
0323 6:36 amNNW 26 29------------
0323 6:30 amNNW 27 32------------
0323 6:24 amNNW 27 29------------
0323 6:18 amNNW 28 31------------
0323 6:12 amNNW 27 30------------
0323 6:06 amNNW 26 29------------
0323 6:00 amNNW 28 33------------
0323 5:54 amNNW 29 32------------
0323 5:48 amNNW 26 29------------
0323 5:42 amNNW 27 30------------
0323 5:36 amNNW 32 38------------
0323 5:30 amNNW 27 30------------
0323 5:24 amNNW 28 33------------
0323 5:18 amNNW 26 31------------
0323 5:12 amNNW 27 33------------
0323 5:06 amNNW 29 32------------
0323 5:00 amNNW 25 28------------
0323 4:54 amNNW 30 32------------
0323 4:48 amNNW 26 29------------
0323 4:42 amNNW 27 31------------
0323 4:36 amNNW 29 31------------
0323 4:30 amNNW 31 36------------
0323 4:24 amNNW 28 35------------
0323 4:18 amNNW 29 34------------
0323 4:12 amNNW 30 35------------
0323 4:06 amNNW 33 36------------
0323 4:00 amNNW 32 37------------
0323 3:54 amNNW 30 35------------
0323 3:48 amNNW 33 38------------
0323 3:42 amNNW 35 39------------
0323 3:36 amNNW 32 35------------
0323 3:30 am NW 31 38------------
0323 3:24 am NW 32 36------------
0323 3:18 amNNW 31 34------------
0323 3:12 amNNW 35 40------------
0323 3:06 amNNW 33 39------------
0323 3:00 am NW 37 45------------
0323 2:54 amNNW 35 39------------
0323 2:48 am NW 34 39------------
0323 2:42 amNNW 34 39------------
0323 2:36 amNNW 33 37------------
0323 2:30 amNNW 34 39------------
0323 2:24 am NW 36 39------------
0323 2:18 am NW 36 39------------
0323 2:12 am NW 34 40------------
0323 2:06 am NW 35 39------------
0323 2:00 am NW 31 36------------
0323 1:54 am NW 28 36------------
0323 1:48 am NW 32 37------------
0323 1:42 am NW 33 36------------
0323 1:36 am NW 30 34------------
0323 1:30 am NW 30 33------------
0323 1:24 am NW 30 33------------
0323 1:18 amNNW 28 32------------
0323 1:12 am NW 31 36------------
0323 1:00 am NW 32 36------------
032312:54 am NW 27 29------------
032312:48 amNNW 29 34------------
032312:42 am NW 27 30------------
032312:36 am NW 26 30------------
032312:30 am NW 26 30------------
032312:24 am NW 25 32------------
032312:18 am NW 23 25------------
032312:12 am NW 24 27------------
032312:06 am NW 21 24------------
032312:00 am NW 25 28------------
032211:54 pm NW 24 29------------
032211:48 pm NW 25 29------------
032211:42 pm NW 27 30------------
032211:36 pm NW 32 37------------
032211:30 pm NW 31 35------------
032211:24 pm NW 31 34------------
032211:12 pm NW 25 28------------
032211:00 pmNNW 28 32------------
032210:54 pmNNW 30 32------------
032210:48 pmNNW 30 32------------
032210:36 pmNNW 27 32------------
032210:30 pmNNW 27 32------------
032210:06 pm NW 27 29------------
032210:00 pm NW 28 32------------
0322 9:54 pm NW 31 35------------
0322 9:48 pm NW 29 31------------
0322 9:42 pm NW 30 34------------
0322 9:36 pm NW 29 32------------
0322 9:24 pm NW 27 31------------
0322 9:18 pm NW 27 31------------
0322 9:12 pmNNW 25 28------------
0322 9:06 pmNNW 23 28------------
0322 9:00 pmNNW 21 24------------
0322 8:54 pmNNW 22 25------------
0322 8:48 pmNNW 24 27------------
0322 8:42 pmNNW 27 31------------
0322 8:36 pmNNW 25 29------------
0322 8:30 pmNNW 29 32------------
0322 8:24 pmNNW 33 38------------
0322 8:18 pmNNW 30 34------------
0322 8:12 pm NW 33 38------------
0322 8:06 pm NW 32 38------------
0322 8:00 pm NW 35 40------------
0322 7:54 pmNNW 29 32------------
0322 7:48 pmNNW 30 34------------
0322 7:42 pm NW 31 35------------
0322 7:36 pm NW 29 32------------
0322 7:30 pm NW 28 32------------
0322 7:24 pm NW 27 30------------
0322 7:18 pm NW 26 30------------
0322 7:12 pm NW 21 23------------
0322 7:06 pm NW 20 23------------
0322 7:00 pm NW 20 22------------
0322 6:54 pm NW 20 22------------
0322 6:48 pm NW 23 26------------
0322 6:42 pm NW 22 25------------
0322 6:36 pm NW 21 23------------
0322 6:30 pm NW 22 24------------
0322 6:24 pm NW 22 24------------
0322 6:18 pm NW 16 25------------
0322 6:12 pm NW 18 22------------
0322 6:06 pmNNW 18 19------------
0322 6:00 pmNNW 20 24------------
0322 5:54 pmNNW 26 29------------

Description of Measurements

Links which are specific to this station are listed below:

Real Time Data in tabular form for the last forty-five days.

Historical Data & Climatic Summaries for quality controlled data for the current month, previous months, and previous years.